Webcam mot vest more information Webcam facing west


BeaufortBeaufort


Du finner stasjonens værinfo også på:

European Weather Network

WeatherCloud

Weather Underground

HAMweather, WeatherForYou, PWS Weather


Programvare vi bruker:

Weather Display

Leuven-Template 2.8

One.com

Værrapport fra de nærmeste flyplassene

   
ENEV - Evenes Lufthavn, (Harstad, Narvik), Norway
Oppdatert: 14-11-2018 05:20
Overskyet  
Overskyet  
   Vind vester√•len: varierende 1 m/s
Vind vesterålen: varierende 1 m/s
Temperatur: 5°C
Duggpunkt: 5°C
Luftfuktighet: 100%
Lufttrykk: 1010 hPa
Skyer: Overskyet
Sikt: Mer enn 10 km
Detaljer skyer: For det meste Overskyet 823 m,
Overskyet 975.4 m
ENEV 140420Z AUTO VRB02KT 9999 BKN027/// OVC032/// 05/05 Q1010 RESHUP RMK WIND 1400FT 20007KT
ENSK - Stokmarknes Lufthavn, VesterŚlen,Norway
Oppdatert: 14-11-2018 05:20
Lett Regn, For det meste Overskyet  
Lett Regn, For det meste Overskyet  
   Vind vester√•len: SS√ė 6.2 m/s
Vind vester√•len: SS√ė 6.2 m/s
Temperatur: 8°C
Wind Chill: 4°C
Duggpunkt: 6°C
Luftfuktighet: 87%
Lufttrykk: 1008 hPa
Skyer: For det meste Overskyet
Sikt: Mer enn 10 km
Detaljer skyer: Noen skyer 457.2 m,
Partly Cloudy 762 m,
For det meste Overskyet 914.4 m
ENSK 140420Z 15012KT 9999 -RA FEW015 SCT025 BKN030 08/06 Q1008
ENAN - Andenes Lufthavn, VesterŚlen, Norway
Oppdatert: 14-11-2018 05:20
For det meste Overskyet  
For det meste Overskyet  
   Vind vester√•len: SSV 4.1 m/s
Vind vesterålen: SSV 4.1 m/s
Temperatur: 6°C
Wind Chill: 3°C
Duggpunkt: 5°C
Luftfuktighet: 93%
Lufttrykk: 1008 hPa
Skyer: For det meste Overskyet
Sikt: Mer enn 10 km
Detaljer skyer: For det meste Overskyet 883.9 m
ENAN 140420Z 20008KT 9999 BKN029 06/05 Q1008
ENLK - Leknes Lufthavn, Lofoten, Norway
Oppdatert: 14-11-2018 04:50
lett yr, For det meste Overskyet  
lett yr, For det meste Overskyet  
   Vind vester√•len: SSV 2.6 m/s
Vind vesterålen: SSV 2.6 m/s
Temperatur: 8°C
Wind Chill: 7°C
Duggpunkt: 7°C
Luftfuktighet: 93%
Lufttrykk: 1008 hPa
Skyer: For det meste Overskyet
Sikt: Mer enn 10 km
Detaljer skyer: Noen skyer 152.4 m,
Partly Cloudy 457.2 m,
For det meste Overskyet 1066.8 m
ENLK 140350Z 20005KT 9999 -DZ FEW005 SCT015 BKN035 08/07 Q1008
ENSH - Svolvśr, Helle, Lofoten, Norway
Oppdatert: 14-11-2018 05:20
Lett Regn, For det meste Overskyet  
Lett Regn, For det meste Overskyet  
   Vind vester√•len: SS√ė 9.3 m/s
Vind vester√•len: SS√ė 9.3 m/s
Temperatur: 7°C
Wind Chill: 2°C
Duggpunkt: 6°C
Luftfuktighet: 93%
Lufttrykk: 1009 hPa
Skyer: For det meste Overskyet
Sikt: Mer enn 10 km
Detaljer skyer: Noen skyer 213.4 m,
Partly Cloudy 457.2 m,
For det meste Overskyet 609.6 m
ENSH 140420Z 16018KT 9999 -RA FEW007 SCT015 BKN020 07/06 Q1009 RMK WIND 150FT 15019KT
ENBO - BodÝ Lufthavn, Norway
Oppdatert: 14-11-2018 05:20
For det meste Overskyet  
For det meste Overskyet  
   Vind vester√•len: √ėst 7.7 m/s
Vind vester√•len: √ėst 7.7 m/s
Temperatur: 6°C
Wind Chill: 2°C
Duggpunkt: 6°C
Luftfuktighet: 100%
Lufttrykk: 1010 hPa
Skyer: For det meste Overskyet
Sikt: Mer enn 10 km
Detaljer skyer: Noen skyer 609.6 m,
For det meste Overskyet 1371.6 m
ENBO 140420Z 09015KT 9999 FEW020 BKN045 06/06 Q1010

Script utviklet av  Saratoga-weather.org Tilpasset for tamplaten av  Weerstation Leuven